Time;durP1;ratioP1;P1;durP2;ratioP2;P2;SDS_P1;SDS_P2;PMS_P1;PMS_P2;Temp;Humidity;BMP_temperature;BMP_pressure;BME280_temperature;BME280_humidity;BME280_pressure;Samples;Min_cycle;Max_cycle;Signal;HPM_P1;HPM_P2
2023/01/20 00:01:17;;;;;;;;;;;;;;;5.92;55.86;98327.50;4478680;32;33576;-92
2023/01/20 00:03:46;;;;;;;;;;;;;;;6.29;55.16;98326.44;4481426;32;34082;-84
2023/01/20 00:06:14;;;;;;;;;;;;;;;6.29;55.07;98326.44;4470953;32;34022;-91
2023/01/20 00:08:42;;;;;;;;;;;;;;;6.09;55.33;98314.09;4482226;32;35075;-89
2023/01/20 00:11:11;;;;;;;;;;;;;;;5.83;56.21;98305.91;4479788;32;33762;-92
2023/01/20 00:13:38;;;;;;;;;;;;;;;5.67;56.33;98309.03;4467553;32;33481;-92
2023/01/20 00:16:06;;;;;;;;;;;;;;;5.53;57.10;98300.19;4467971;32;34248;-92
2023/01/20 00:18:34;;;;;;;;;;;;;;;5.85;56.18;98296.50;4481935;32;34996;-93
2023/01/20 00:21:05;;;;;;;;;;;;;;;6.33;54.27;98298.19;4479235;32;34252;-93
2023/01/20 00:23:32;;;;;;;;;;;;;;;5.62;56.41;98315.81;4468079;32;34172;-93
2023/01/20 00:26:07;;;;;;;;;;;;;;;6.56;53.69;98316.56;4484257;32;35736;-93
2023/01/20 00:28:34;;;;;;;;;;;;;;;5.51;56.69;98312.16;4469858;32;33770;-87
2023/01/20 00:31:10;;;;;;;;;;;;;;;5.42;57.28;98317.13;4468460;32;33455;-93
2023/01/20 00:33:38;;;;;;;;;;;;;;;5.83;55.32;98315.31;4474071;32;34627;-93
2023/01/20 00:36:05;;;;;;;;;;;;;;;5.49;57.06;98327.56;4484214;32;35384;-93
2023/01/20 00:38:33;;;;;;;;;;;;;;;5.56;56.96;98331.09;4469051;32;33452;-93
2023/01/20 00:41:00;;;;;;;;;;;;;;;5.05;57.70;98347.22;4481712;32;33419;-94
2023/01/20 00:43:27;;;;;;;;;;;;;;;4.74;59.08;98361.97;4483560;32;33972;-93
2023/01/20 00:45:54;;;;;;;;;;;;;;;5.71;56.66;98357.09;4469918;32;34491;-93
2023/01/20 00:48:22;;;;;;;;;;;;;;;5.73;56.19;98370.87;4483949;32;35074;-93
2023/01/20 00:50:49;;;;;;;;;;;;;;;6.28;54.81;98382.19;4481214;32;33335;-94
2023/01/20 00:53:16;;;;;;;;;;;;;;;6.18;54.91;98371.72;4458774;32;790125;-91
2023/01/20 00:55:44;;;;;;;;;;;;;;;6.41;53.99;98352.38;4484055;32;34453;-94
2023/01/20 00:58:11;;;;;;;;;;;;;;;5.58;56.46;98350.00;4484165;31;34799;-94
2023/01/20 01:00:38;;;;;;;;;;;;;;;6.73;53.64;98352.88;4481120;32;32893;-93
2023/01/20 01:03:06;;;;;;;;;;;;;;;6.82;53.44;98340.13;4467693;32;33595;-92
2023/01/20 01:05:33;;;;;;;;;;;;;;;7.04;51.68;98336.12;4483975;32;35362;-93
2023/01/20 01:08:00;;;;;;;;;;;;;;;7.02;52.28;98331.81;4483272;32;34557;-93
2023/01/20 01:10:27;;;;;;;;;;;;;;;7.77;50.79;98320.66;4481609;32;33300;-91
2023/01/20 01:12:55;;;;;;;;;;;;;;;7.69;50.64;98326.56;4482415;32;32977;-90
2023/01/20 01:15:22;;;;;;;;;;;;;;;6.93;52.06;98317.09;4483416;32;34369;-93
2023/01/20 01:17:50;;;;;;;;;;;;;;;5.78;54.74;98320.38;4483532;32;34345;-92
2023/01/20 01:20:17;;;;;;;;;;;;;;;7.10;51.49;98309.56;4480990;32;32063;-86
2023/01/20 01:22:45;;;;;;;;;;;;;;;7.35;51.03;98310.75;4482108;32;33215;-92
2023/01/20 01:25:12;;;;;;;;;;;;;;;6.78;52.54;98301.41;4456900;32;33628;-92
2023/01/20 01:27:40;;;;;;;;;;;;;;;6.58;52.68;98289.13;4480491;32;34199;-86
2023/01/20 01:30:07;;;;;;;;;;;;;;;5.95;54.44;98296.72;4482078;32;34006;-90
2023/01/20 01:32:34;;;;;;;;;;;;;;;6.76;52.53;98290.22;4481188;32;33726;-82
2023/01/20 01:35:02;;;;;;;;;;;;;;;7.43;50.97;98293.66;4483602;32;32800;-92
2023/01/20 01:37:29;;;;;;;;;;;;;;;6.85;51.98;98298.06;4482416;32;34778;-91
2023/01/20 01:39:56;;;;;;;;;;;;;;;7.10;51.49;98285.53;4483288;32;33116;-94
2023/01/20 01:42:24;;;;;;;;;;;;;;;7.53;50.60;98284.28;4479461;32;34080;-93
2023/01/20 01:45:09;;;;;;;;;;;;;;;6.45;52.72;98291.50;4483304;32;34452;-93
2023/01/20 01:48:04;;;;;;;;;;;;;;;6.94;51.94;98282.75;4482036;32;34294;-91
2023/01/20 01:50:36;;;;;;;;;;;;;;;6.54;52.72;98282.19;4478027;32;33486;-93
2023/01/20 01:53:03;;;;;;;;;;;;;;;6.52;52.91;98276.16;4467121;32;34943;-91
2023/01/20 01:55:32;;;;;;;;;;;;;;;6.81;52.37;98266.25;4461104;32;33982;-93
2023/01/20 01:57:59;;;;;;;;;;;;;;;6.85;52.36;98266.28;4466654;32;34904;-90
2023/01/20 02:00:27;;;;;;;;;;;;;;;5.84;55.14;98270.78;4465137;32;32166;-91
2023/01/20 02:02:54;;;;;;;;;;;;;;;6.84;52.66;98265.44;4469263;32;34987;-93
2023/01/20 02:05:21;;;;;;;;;;;;;;;7.03;51.97;98256.22;4468610;32;33940;-93
2023/01/20 02:07:49;;;;;;;;;;;;;;;6.00;54.62;98267.62;4468537;32;34039;-93
2023/01/20 02:10:16;;;;;;;;;;;;;;;6.39;53.68;98263.94;4482060;32;34163;-82
2023/01/20 02:12:46;;;;;;;;;;;;;;;5.81;55.20;98269.00;4481653;32;33993;-93
2023/01/20 02:15:13;;;;;;;;;;;;;;;5.01;56.82;98260.66;4469286;32;34496;-94
2023/01/20 02:17:46;;;;;;;;;;;;;;;5.50;56.31;98257.31;4481635;32;33987;-92
2023/01/20 02:20:33;;;;;;;;;;;;;;;4.74;58.20;98269.53;4483884;32;32444;-93
2023/01/20 02:23:06;;;;;;;;;;;;;;;5.59;55.30;98259.19;4472393;32;34826;-92
2023/01/20 02:25:40;;;;;;;;;;;;;;;5.55;55.22;98271.09;4468027;32;34388;-90
2023/01/20 02:28:26;;;;;;;;;;;;;;;6.01;54.18;98271.94;4482002;32;35066;-95
2023/01/20 02:30:53;;;;;;;;;;;;;;;5.69;55.67;98281.66;4477164;32;33544;-92
2023/01/20 02:33:56;;;;;;;;;;;;;;;5.05;56.96;98267.59;4483204;32;34081;-93
2023/01/20 02:36:26;;;;;;;;;;;;;;;6.23;54.09;98270.56;4393689;32;34489;-85
2023/01/20 02:38:55;;;;;;;;;;;;;;;5.63;55.04;98276.38;4458052;32;34417;-94
2023/01/20 02:41:24;;;;;;;;;;;;;;;5.68;55.02;98259.31;4468721;32;34480;-87
2023/01/20 02:43:57;;;;;;;;;;;;;;;5.29;56.34;98257.78;4467765;32;34905;-86
2023/01/20 02:46:38;;;;;;;;;;;;;;;4.99;57.43;98258.03;4479940;32;34706;-90
2023/01/20 02:49:09;;;;;;;;;;;;;;;5.95;54.91;98265.84;4468503;32;35026;-88
2023/01/20 02:51:40;;;;;;;;;;;;;;;5.41;56.21;98266.56;4480506;32;33144;-92
2023/01/20 02:54:08;;;;;;;;;;;;;;;6.47;53.08;98261.47;4483191;32;34325;-91
2023/01/20 02:56:36;;;;;;;;;;;;;;;6.73;52.07;98256.69;4469028;32;34170;-90
2023/01/20 02:59:04;;;;;;;;;;;;;;;5.98;54.20;98259.00;4468825;32;34264;-93
2023/01/20 03:01:41;;;;;;;;;;;;;;;6.31;53.52;98273.25;4464310;32;34050;-91
2023/01/20 03:04:09;;;;;;;;;;;;;;;6.21;54.14;98266.22;4468662;32;33911;-92
2023/01/20 03:06:37;;;;;;;;;;;;;;;4.42;58.85;98273.06;4457476;32;34616;-93
2023/01/20 03:09:05;;;;;;;;;;;;;;;4.85;57.33;98277.47;4460871;32;34941;-91
2023/01/20 03:11:33;;;;;;;;;;;;;;;5.69;55.39;98275.66;4466290;32;33533;-90
2023/01/20 03:14:06;;;;;;;;;;;;;;;5.53;56.19;98284.75;4461779;32;33667;-88
2023/01/20 03:16:34;;;;;;;;;;;;;;;5.27;56.90;98285.16;4455770;32;34337;-88
2023/01/20 03:19:01;;;;;;;;;;;;;;;5.46;55.38;98288.94;4481898;32;34008;-93
2023/01/20 03:21:29;;;;;;;;;;;;;;;6.30;53.88;98295.56;4466369;32;34001;-93
2023/01/20 03:23:57;;;;;;;;;;;;;;;5.81;54.87;98292.16;4454560;32;33262;-93
2023/01/20 03:26:24;;;;;;;;;;;;;;;5.51;55.94;98284.75;4466680;32;34028;-88
2023/01/20 03:28:53;;;;;;;;;;;;;;;5.98;54.53;98295.03;4470206;32;34855;-92
2023/01/20 03:31:21;;;;;;;;;;;;;;;7.04;52.29;98288.88;4465069;32;34582;-93
2023/01/20 03:33:49;;;;;;;;;;;;;;;6.44;53.19;98300.03;4468183;32;34827;-92
2023/01/20 03:36:17;;;;;;;;;;;;;;;6.04;54.77;98297.72;4468550;32;34805;-93
2023/01/20 03:38:44;;;;;;;;;;;;;;;6.40;53.72;98303.41;4452464;32;32991;-90
2023/01/20 03:41:11;;;;;;;;;;;;;;;7.05;52.07;98295.78;4463484;32;34058;-92
2023/01/20 03:43:43;;;;;;;;;;;;;;;6.66;52.93;98291.78;4482521;32;34780;-91
2023/01/20 03:46:13;;;;;;;;;;;;;;;6.08;53.72;98296.06;4479828;32;35062;-83
2023/01/20 03:48:41;;;;;;;;;;;;;;;5.43;56.36;98299.16;4461392;32;35204;-92
2023/01/20 03:51:17;;;;;;;;;;;;;;;6.46;53.84;98293.22;4464045;32;33332;-91
2023/01/20 03:53:51;;;;;;;;;;;;;;;6.57;53.28;98291.69;4468060;32;34171;-92
2023/01/20 03:56:22;;;;;;;;;;;;;;;6.18;54.37;98303.09;4464351;32;34162;-93
2023/01/20 03:58:50;;;;;;;;;;;;;;;6.05;54.24;98301.16;4475347;32;35641;-93
2023/01/20 04:01:22;;;;;;;;;;;;;;;5.82;55.38;98296.44;4464631;32;34356;-94
2023/01/20 04:03:50;;;;;;;;;;;;;;;6.36;53.86;98294.78;4469412;32;34385;-93
2023/01/20 04:06:18;;;;;;;;;;;;;;;5.53;55.91;98295.03;4480866;32;34400;-93
2023/01/20 04:08:53;;;;;;;;;;;;;;;6.39;54.12;98289.69;4469636;32;34076;-91
2023/01/20 04:11:23;;;;;;;;;;;;;;;7.15;51.98;98292.44;4481423;32;33300;-94
2023/01/20 04:13:50;;;;;;;;;;;;;;;6.85;52.51;98292.91;4483902;32;34073;-92
2023/01/20 04:16:17;;;;;;;;;;;;;;;6.90;52.49;98280.13;4482998;32;34510;-91
2023/01/20 04:18:46;;;;;;;;;;;;;;;6.06;54.40;98292.59;4457519;32;34306;-93
2023/01/20 04:21:15;;;;;;;;;;;;;;;6.92;52.60;98279.28;4469363;32;33228;-91
2023/01/20 04:23:47;;;;;;;;;;;;;;;6.67;52.94;98283.25;4469262;32;33760;-91
2023/01/20 04:26:14;;;;;;;;;;;;;;;6.39;54.20;98297.41;4466252;32;35204;-92
2023/01/20 04:28:41;;;;;;;;;;;;;;;6.03;54.65;98300.28;4484125;32;34387;-94
2023/01/20 04:31:10;;;;;;;;;;;;;;;6.60;53.43;98306.31;4478260;32;33425;-91
2023/01/20 04:33:55;;;;;;;;;;;;;;;6.65;53.10;98299.50;4482879;32;34693;-92
2023/01/20 04:36:23;;;;;;;;;;;;;;;7.41;51.35;98299.63;4481850;32;34301;-93
2023/01/20 04:38:50;;;;;;;;;;;;;;;7.72;50.47;98300.81;4473438;32;34667;-92
2023/01/20 04:41:17;;;;;;;;;;;;;;;7.69;50.26;98296.50;4478298;32;33622;-92
2023/01/20 04:43:45;;;;;;;;;;;;;;;6.74;53.14;98305.69;4481199;32;33804;-92
2023/01/20 04:46:13;;;;;;;;;;;;;;;6.93;52.70;98304.22;4481651;32;34968;-93
2023/01/20 04:48:40;;;;;;;;;;;;;;;6.34;53.84;98304.22;4481603;32;34756;-90
2023/01/20 04:51:08;;;;;;;;;;;;;;;5.91;55.70;98305.16;4479105;32;33106;-91
2023/01/20 04:53:35;;;;;;;;;;;;;;;7.09;52.60;98284.66;4482834;32;34630;-93
2023/01/20 04:56:02;;;;;;;;;;;;;;;6.75;53.40;98275.62;4483130;32;33857;-92
2023/01/20 04:58:30;;;;;;;;;;;;;;;7.47;51.17;98267.03;4483361;31;34833;-90
2023/01/20 05:00:59;;;;;;;;;;;;;;;7.59;50.72;98258.56;4480026;32;33556;-91
2023/01/20 05:03:27;;;;;;;;;;;;;;;7.43;51.12;98242.06;4483130;32;34718;-92
2023/01/20 05:05:54;;;;;;;;;;;;;;;7.79;50.11;98244.12;4482835;32;35165;-92
2023/01/20 05:08:21;;;;;;;;;;;;;;;8.44;48.72;98232.59;4468860;32;34303;-93
2023/01/20 05:10:49;;;;;;;;;;;;;;;7.46;50.53;98241.22;4477486;32;33512;-90
2023/01/20 05:13:16;;;;;;;;;;;;;;;7.74;50.29;98242.38;4483371;32;33839;-90
2023/01/20 05:15:43;;;;;;;;;;;;;;;8.13;49.05;98235.81;4483084;32;34217;-91
2023/01/20 05:18:10;;;;;;;;;;;;;;;8.27;48.80;98244.53;4478783;32;34084;-89
2023/01/20 05:20:38;;;;;;;;;;;;;;;7.63;50.31;98255.16;4476599;32;33761;-92
2023/01/20 05:23:05;;;;;;;;;;;;;;;8.36;48.26;98254.91;4478463;32;33840;-94
2023/01/20 05:25:33;;;;;;;;;;;;;;;7.63;49.95;98249.16;4476301;32;34444;-92
2023/01/20 05:28:00;;;;;;;;;;;;;;;7.96;49.28;98257.19;4468494;32;35164;-94
2023/01/20 05:30:27;;;;;;;;;;;;;;;8.21;48.47;98255.66;4477975;32;34207;-94
2023/01/20 05:32:54;;;;;;;;;;;;;;;6.96;51.31;98260.44;4469771;32;34320;-90
2023/01/20 05:35:22;;;;;;;;;;;;;;;7.59;49.52;98249.97;4480065;32;35329;-86
2023/01/20 05:38:00;;;;;;;;;;;;;;;6.86;52.12;98249.97;4477768;32;34283;-92
2023/01/20 05:40:27;;;;;;;;;;;;;;;7.05;51.67;98260.56;4472122;32;33155;-91
2023/01/20 05:43:01;;;;;;;;;;;;;;;7.29;51.36;98257.38;4462379;32;33766;-92
2023/01/20 05:45:28;;;;;;;;;;;;;;;7.44;51.06;98261.00;4459344;32;34144;-94
2023/01/20 05:47:56;;;;;;;;;;;;;;;7.11;51.71;98270.06;4479576;32;35110;-93
2023/01/20 05:50:24;;;;;;;;;;;;;;;6.09;54.17;98280.63;4478009;32;34040;-92
2023/01/20 05:52:52;;;;;;;;;;;;;;;6.85;52.71;98261.13;4481504;32;33818;-80
2023/01/20 05:55:19;;;;;;;;;;;;;;;7.84;50.12;98263.94;4467186;32;33514;-87
2023/01/20 05:57:47;;;;;;;;;;;;;;;7.91;49.79;98271.75;4463030;32;34471;-94
2023/01/20 06:00:17;;;;;;;;;;;;;;;7.36;50.93;98272.94;4483659;32;34452;-79
2023/01/20 06:02:45;;;;;;;;;;;;;;;7.51;50.68;98270.53;4478627;32;34580;-93
2023/01/20 06:05:14;;;;;;;;;;;;;;;7.68;50.13;98271.53;4482221;32;34377;-94
2023/01/20 06:07:42;;;;;;;;;;;;;;;7.71;50.41;98266.41;4483752;32;34001;-93
2023/01/20 06:10:10;;;;;;;;;;;;;;;7.10;51.51;98267.47;4483663;32;33457;-92
2023/01/20 06:12:37;;;;;;;;;;;;;;;7.32;51.25;98264.31;4469671;32;34111;-93
2023/01/20 06:15:05;;;;;;;;;;;;;;;6.96;52.00;98257.84;4468822;32;34093;-92
2023/01/20 06:17:33;;;;;;;;;;;;;;;7.16;52.10;98258.13;4469752;32;34246;-93
2023/01/20 06:20:00;;;;;;;;;;;;;;;6.77;52.66;98256.75;4470929;32;33969;-90
2023/01/20 06:22:27;;;;;;;;;;;;;;;7.40;51.34;98261.81;4483364;32;34197;-90
2023/01/20 06:24:54;;;;;;;;;;;;;;;6.40;53.95;98269.94;4489571;32;34154;-94
2023/01/20 06:27:21;;;;;;;;;;;;;;;7.44;51.28;98264.44;4484072;32;33963;-92
2023/01/20 06:29:49;;;;;;;;;;;;;;;6.74;53.23;98272.19;4484789;32;33563;-90
2023/01/20 06:32:17;;;;;;;;;;;;;;;7.07;52.60;98269.16;4484856;32;34952;-93
2023/01/20 06:34:44;;;;;;;;;;;;;;;6.43;54.27;98275.16;4484070;32;34489;-89
2023/01/20 06:37:12;;;;;;;;;;;;;;;6.30;54.59;98280.13;4483056;32;33844;-93
2023/01/20 06:39:39;;;;;;;;;;;;;;;6.03;55.58;98266.84;4454242;32;35582;-94
2023/01/20 06:42:06;;;;;;;;;;;;;;;6.17;55.58;98270.47;4468413;32;34315;-94
2023/01/20 06:44:34;;;;;;;;;;;;;;;6.09;55.75;98275.50;4468036;32;34459;-92
2023/01/20 06:47:01;;;;;;;;;;;;;;;7.60;51.98;98272.31;4469716;32;35239;-89
2023/01/20 06:49:29;;;;;;;;;;;;;;;6.70;53.61;98275.53;4454518;32;34349;-92
2023/01/20 06:51:56;;;;;;;;;;;;;;;6.02;55.63;98290.81;4453886;32;33014;-94
2023/01/20 06:54:23;;;;;;;;;;;;;;;6.64;54.25;98280.63;4469133;32;33924;-91
2023/01/20 06:57:09;;;;;;;;;;;;;;;7.43;52.22;98282.47;4467743;32;34874;-93
2023/01/20 06:59:36;;;;;;;;;;;;;;;7.70;51.29;98281.91;4467846;32;34332;-94
2023/01/20 07:02:03;;;;;;;;;;;;;;;7.29;52.07;98285.75;4467840;32;33702;-94
2023/01/20 07:04:31;;;;;;;;;;;;;;;7.67;51.40;98285.31;4467734;32;34376;-92
2023/01/20 07:06:58;;;;;;;;;;;;;;;7.76;51.14;98285.37;4467837;32;34104;-93
2023/01/20 07:09:25;;;;;;;;;;;;;;;7.82;50.64;98286.31;4453861;32;33504;-90
2023/01/20 07:11:53;;;;;;;;;;;;;;;8.23;49.85;98290.12;4467634;32;35069;-92
2023/01/20 07:14:21;;;;;;;;;;;;;;;8.49;49.01;98292.06;4467844;32;35356;-92
2023/01/20 07:16:48;;;;;;;;;;;;;;;8.41;49.38;98296.28;4467653;32;34112;-90
2023/01/20 07:19:15;;;;;;;;;;;;;;;8.37;49.56;98304.84;4467532;32;33471;-92
2023/01/20 07:21:42;;;;;;;;;;;;;;;7.88;50.89;98307.00;4467657;32;34988;-93
2023/01/20 07:24:10;;;;;;;;;;;;;;;8.15;49.77;98302.09;4468933;32;34158;-93
2023/01/20 07:26:37;;;;;;;;;;;;;;;8.29;49.62;98304.78;4468534;32;33911;-89
2023/01/20 07:29:04;;;;;;;;;;;;;;;8.17;49.55;98305.53;4467846;32;33033;-94
2023/01/20 07:31:33;;;;;;;;;;;;;;;8.64;48.82;98305.09;4467804;32;33801;-93
2023/01/20 07:34:00;;;;;;;;;;;;;;;7.86;50.92;98304.41;4466997;32;35107;-92
2023/01/20 07:36:27;;;;;;;;;;;;;;;8.33;50.07;98306.53;4467622;32;34521;-90
2023/01/20 07:38:55;;;;;;;;;;;;;;;7.91;51.05;98307.03;4467709;32;33630;-91
2023/01/20 07:41:22;;;;;;;;;;;;;;;8.14;50.46;98302.06;4467496;32;34149;-90
2023/01/20 07:43:50;;;;;;;;;;;;;;;8.20;50.16;98302.13;4467610;32;35241;-88
2023/01/20 07:46:18;;;;;;;;;;;;;;;7.76;51.36;98303.44;4467588;32;34101;-89
2023/01/20 07:48:46;;;;;;;;;;;;;;;7.62;51.65;98310.19;4467490;32;33346;-91
2023/01/20 07:51:14;;;;;;;;;;;;;;;8.07;50.65;98301.19;4467519;32;34437;-89
2023/01/20 07:53:48;;;;;;;;;;;;;;;8.48;49.47;98311.84;4453308;32;34765;-89
2023/01/20 07:56:16;;;;;;;;;;;;;;;9.47;46.79;98303.78;4467466;32;34053;-90
2023/01/20 07:58:44;;;;;;;;;;;;;;;8.82;48.49;98309.47;4467214;32;33203;-88
2023/01/20 08:01:12;;;;;;;;;;;;;;;8.87;48.37;98310.41;4466696;32;34952;-89
2023/01/20 08:03:42;;;;;;;;;;;;;;;8.65;48.66;98318.88;4440847;32;34122;-86
2023/01/20 08:06:10;;;;;;;;;;;;;;;7.77;50.82;98320.66;4467164;32;34548;-87
2023/01/20 08:08:37;;;;;;;;;;;;;;;7.74;51.34;98330.09;4452858;32;33966;-92
2023/01/20 08:11:05;;;;;;;;;;;;;;;8.63;49.14;98333.47;4452819;32;34334;-91
2023/01/20 08:13:32;;;;;;;;;;;;;;;8.42;49.59;98337.63;4467028;32;34866;-87
2023/01/20 08:16:00;;;;;;;;;;;;;;;8.32;49.87;98337.50;4466548;32;34372;-87
2023/01/20 08:18:28;;;;;;;;;;;;;;;8.52;49.56;98342.03;4452859;32;34146;-90
2023/01/20 08:20:55;;;;;;;;;;;;;;;8.41;49.83;98345.34;4466906;32;33951;-84
2023/01/20 08:23:22;;;;;;;;;;;;;;;8.19;50.12;98341.72;4466968;32;34100;-91
2023/01/20 08:25:57;;;;;;;;;;;;;;;7.91;51.17;98336.28;4466852;32;35043;-91
2023/01/20 08:28:25;;;;;;;;;;;;;;;7.50;52.23;98341.88;4452915;32;33230;-84
2023/01/20 08:30:52;;;;;;;;;;;;;;;7.44;52.66;98334.06;4452323;32;33882;-86
2023/01/20 08:33:19;;;;;;;;;;;;;;;8.59;50.10;98340.34;4466654;32;34493;-88
2023/01/20 08:35:47;;;;;;;;;;;;;;;9.13;48.61;98333.81;4466582;32;34071;-85
2023/01/20 08:38:14;;;;;;;;;;;;;;;9.52;47.61;98334.81;4466596;32;33176;-88
2023/01/20 08:40:42;;;;;;;;;;;;;;;9.39;47.72;98338.22;4466703;32;34096;-92
2023/01/20 08:43:09;;;;;;;;;;;;;;;8.76;49.10;98345.66;4452296;32;34361;-92
2023/01/20 08:45:36;;;;;;;;;;;;;;;8.42;49.75;98350.56;4467316;32;35083;-91
2023/01/20 08:48:03;;;;;;;;;;;;;;;8.51;49.63;98349.75;4468771;32;34209;-92
2023/01/20 08:50:31;;;;;;;;;;;;;;;8.30;50.44;98353.00;4468613;32;34082;-93
2023/01/20 08:52:58;;;;;;;;;;;;;;;8.59;49.65;98350.66;4468462;32;34478;-91
2023/01/20 08:55:25;;;;;;;;;;;;;;;7.54;51.94;98353.09;4468655;32;34968;-91
2023/01/20 08:57:52;;;;;;;;;;;;;;;7.38;52.68;98354.59;4468779;32;33501;-93
2023/01/20 09:00:20;;;;;;;;;;;;;;;8.50;50.08;98360.94;4468162;32;34305;-92
2023/01/20 09:02:47;;;;;;;;;;;;;;;8.38;50.29;98351.38;4454668;32;33982;-93
2023/01/20 09:05:14;;;;;;;;;;;;;;;8.86;49.37;98359.47;4468801;32;34803;-93
2023/01/20 09:07:44;;;;;;;;;;;;;;;9.06;48.60;98357.91;4468481;32;33038;-93
2023/01/20 09:10:11;;;;;;;;;;;;;;;8.31;50.38;98359.03;4468384;32;35039;-90
2023/01/20 09:12:38;;;;;;;;;;;;;;;7.67;52.02;98360.13;4468811;32;34364;-91
2023/01/20 09:15:06;;;;;;;;;;;;;;;7.09;53.77;98359.41;4468459;32;34567;-94
2023/01/20 09:17:34;;;;;;;;;;;;;;;7.88;51.99;98358.59;4468665;32;33719;-92
2023/01/20 09:20:01;;;;;;;;;;;;;;;7.25;53.79;98357.88;4468542;32;33904;-93
2023/01/20 09:22:29;;;;;;;;;;;;;;;6.88;54.75;98348.78;4468599;32;33904;-92
2023/01/20 09:24:56;;;;;;;;;;;;;;;7.70;52.58;98346.41;4468681;32;33737;-93
2023/01/20 09:27:24;;;;;;;;;;;;;;;7.85;52.49;98333.66;4468681;32;34043;-88
2023/01/20 09:29:51;;;;;;;;;;;;;;;7.64;52.71;98336.00;4468428;32;33915;-90
2023/01/20 09:32:18;;;;;;;;;;;;;;;8.48;50.42;98326.47;4468361;32;35166;-92
2023/01/20 09:34:46;;;;;;;;;;;;;;;6.49;55.80;98334.47;4468517;32;35047;-92
2023/01/20 09:45:57;;;;;;;;;;;;;;;8.42;50.68;98322.16;4468278;32;34371;-92
2023/01/20 09:54:44;;;;;;;;;;;;;;;8.07;51.92;98315.78;4468355;32;35326;-91
2023/01/20 09:57:11;;;;;;;;;;;;;;;7.53;53.66;98308.34;4454072;32;34268;-92
2023/01/20 09:59:43;;;;;;;;;;;;;;;8.05;52.33;98308.03;4454263;32;33201;-92
2023/01/20 10:02:14;;;;;;;;;;;;;;;7.84;52.93;98300.06;4468365;32;34306;-83
2023/01/20 10:04:42;;;;;;;;;;;;;;;6.57;56.28;98292.53;4454623;32;34091;-90
2023/01/20 10:07:28;;;;;;;;;;;;;;;7.66;53.68;98286.16;4454167;32;34561;-92
2023/01/20 10:09:59;;;;;;;;;;;;;;;7.60;53.73;98274.91;4468357;32;33332;-92
2023/01/20 10:12:30;;;;;;;;;;;;;;;6.66;56.73;98266.03;4468147;32;33839;-93
2023/01/20 10:15:16;;;;;;;;;;;;;;;7.15;54.71;98261.50;4468146;32;35306;-92
2023/01/20 10:17:49;;;;;;;;;;;;;;;7.04;55.48;98252.78;4468166;32;33966;-92
2023/01/20 10:20:17;;;;;;;;;;;;;;;7.84;53.39;98243.31;4468027;32;33395;-90
2023/01/20 10:23:03;;;;;;;;;;;;;;;7.65;54.06;98235.44;4468173;32;33483;-91
2023/01/20 10:25:40;;;;;;;;;;;;;;;6.37;56.86;98241.63;4467906;32;34454;-93
2023/01/20 10:28:13;;;;;;;;;;;;;;;7.02;55.82;98241.63;4453763;32;34294;-93
2023/01/20 10:30:40;;;;;;;;;;;;;;;6.70;56.24;98238.63;4468103;32;33428;-92
2023/01/20 10:33:09;;;;;;;;;;;;;;;6.91;55.88;98240.63;4454451;32;34316;-93
2023/01/20 10:35:37;;;;;;;;;;;;;;;7.65;53.80;98238.00;4468159;32;34436;-92
2023/01/20 10:38:06;;;;;;;;;;;;;;;8.51;51.42;98236.09;4467875;32;35172;-93
2023/01/20 10:40:35;;;;;;;;;;;;;;;7.62;53.32;98240.56;4468225;32;33130;-91
2023/01/20 10:43:10;;;;;;;;;;;;;;;6.95;55.14;98240.66;4454066;32;33895;-93
2023/01/20 10:45:37;;;;;;;;;;;;;;;6.14;57.57;98243.81;4454021;32;34258;-93
2023/01/20 10:48:04;;;;;;;;;;;;;;;6.70;56.65;98256.66;4468266;32;34004;-93
2023/01/20 10:50:50;;;;;;;;;;;;;;;6.72;56.01;98255.84;4468400;32;32830;-91
2023/01/20 10:53:32;;;;;;;;;;;;;;;6.61;56.33;98259.97;4468712;32;34316;-92
2023/01/20 10:56:02;;;;;;;;;;;;;;;7.53;54.00;98258.50;4453981;32;35226;-92
2023/01/20 10:58:31;;;;;;;;;;;;;;;7.26;54.87;98259.94;4454684;32;35003;-94
2023/01/20 11:00:59;;;;;;;;;;;;;;;7.67;52.91;98259.50;4454452;32;33409;-92
2023/01/20 11:03:27;;;;;;;;;;;;;;;6.56;55.70;98267.62;4453918;32;33952;-92
2023/01/20 11:05:54;;;;;;;;;;;;;;;6.94;54.96;98264.72;4454195;32;34421;-94
2023/01/20 11:08:22;;;;;;;;;;;;;;;7.13;54.89;98267.53;4467616;32;34949;-93
2023/01/20 11:10:54;;;;;;;;;;;;;;;7.63;53.64;98264.63;4453585;32;34181;-93
2023/01/20 11:13:21;;;;;;;;;;;;;;;7.98;52.68;98262.34;4453919;32;34044;-92
2023/01/20 11:15:50;;;;;;;;;;;;;;;8.23;51.20;98263.44;4467931;32;35257;-93
2023/01/20 11:18:26;;;;;;;;;;;;;;;8.95;49.96;98256.16;4467656;32;33720;-92
2023/01/20 11:21:01;;;;;;;;;;;;;;;7.96;52.37;98249.44;4468156;32;32968;-90
2023/01/20 11:23:46;;;;;;;;;;;;;;;7.94;52.29;98245.12;4467404;32;34312;-92
2023/01/20 11:26:19;;;;;;;;;;;;;;;8.33;51.48;98235.94;4453652;32;34307;-93
2023/01/20 11:28:46;;;;;;;;;;;;;;;6.96;54.73;98233.81;4453370;32;34547;-92
2023/01/20 11:31:14;;;;;;;;;;;;;;;8.43;50.79;98206.78;4467529;32;33433;-92
2023/01/20 11:33:54;;;;;;;;;;;;;;;7.28;54.35;98217.00;4467583;32;34481;-92
2023/01/20 11:36:26;;;;;;;;;;;;;;;7.20;55.03;98213.47;4453438;32;34368;-92
2023/01/20 11:38:54;;;;;;;;;;;;;;;7.22;54.37;98203.16;4467416;32;34993;-92
2023/01/20 11:41:22;;;;;;;;;;;;;;;6.99;55.21;98197.75;4453328;32;33320;-91
2023/01/20 11:43:50;;;;;;;;;;;;;;;6.71;55.84;98194.87;4467426;32;34191;-89
2023/01/20 11:46:20;;;;;;;;;;;;;;;6.94;55.47;98199.44;4453983;32;33564;-93
2023/01/20 11:48:48;;;;;;;;;;;;;;;6.75;55.66;98194.06;4467255;32;33959;-92
2023/01/20 11:51:19;;;;;;;;;;;;;;;7.64;53.48;98202.72;4467272;32;33292;-91
2023/01/20 11:53:47;;;;;;;;;;;;;;;7.32;54.04;98192.97;4467450;32;33647;-92
2023/01/20 11:56:18;;;;;;;;;;;;;;;8.58;50.12;98186.19;4453803;32;34563;-91
2023/01/20 11:58:56;;;;;;;;;;;;;;;6.27;57.24;98195.13;4453203;32;34145;-92
2023/01/20 12:01:27;;;;;;;;;;;;;;;6.98;54.72;98190.88;4467068;32;33508;-92
2023/01/20 12:04:01;;;;;;;;;;;;;;;7.28;54.29;98180.91;4453115;32;34047;-90
2023/01/20 12:06:30;;;;;;;;;;;;;;;7.01;54.73;98188.34;4467145;32;35299;-92
2023/01/20 12:08:59;;;;;;;;;;;;;;;7.73;52.25;98183.91;4452848;32;34776;-91
2023/01/20 12:11:33;;;;;;;;;;;;;;;7.12;54.89;98194.47;4452954;32;33638;-93
2023/01/20 12:14:19;;;;;;;;;;;;;;;7.21;54.14;98194.56;4452992;32;33804;-92
2023/01/20 12:16:57;;;;;;;;;;;;;;;7.68;53.04;98201.03;4466966;32;34388;-92
2023/01/20 12:19:34;;;;;;;;;;;;;;;7.45;53.23;98198.25;4452919;32;34017;-93
2023/01/20 12:22:03;;;;;;;;;;;;;;;7.30;53.69;98204.09;4468970;32;33417;-91
2023/01/20 12:27:29;;;;;;;;;;;;;;;7.71;52.42;98201.91;4457075;32;34330;-93
2023/01/20 12:30:04;;;;;;;;;;;;;;;8.11;51.71;98201.38;4454890;32;34793;-93
2023/01/20 12:32:32;;;;;;;;;;;;;;;8.28;50.81;98197.19;4454786;32;34147;-91
2023/01/20 12:34:59;;;;;;;;;;;;;;;6.48;55.82;98197.16;4468680;32;33609;-90
2023/01/20 12:37:26;;;;;;;;;;;;;;;6.28;56.57;98211.44;4468933;32;34089;-93
2023/01/20 12:39:53;;;;;;;;;;;;;;;5.85;58.46;98214.19;4468893;32;35064;-94
2023/01/20 12:42:24;;;;;;;;;;;;;;;6.44;56.51;98203.09;4468913;32;33243;-90
2023/01/20 12:44:57;;;;;;;;;;;;;;;6.63;56.67;98208.47;4470171;32;34456;-91
2023/01/20 12:47:29;;;;;;;;;;;;;;;6.01;57.91;98209.31;4469852;32;35014;-94
2023/01/20 12:49:59;;;;;;;;;;;;;;;6.21;57.40;98209.63;4454995;32;34270;-88
2023/01/20 12:52:40;;;;;;;;;;;;;;;6.71;56.55;98212.03;4468511;32;33553;-90
2023/01/20 12:55:12;;;;;;;;;;;;;;;6.50;56.27;98204.88;4455343;32;35195;-87
2023/01/20 12:57:52;;;;;;;;;;;;;;;6.76;55.43;98207.81;4454655;32;35046;-84
2023/01/20 13:00:27;;;;;;;;;;;;;;;6.45;56.55;98216.84;4454492;32;33898;-91
2023/01/20 13:03:06;;;;;;;;;;;;;;;5.56;59.00;98223.13;4441854;32;32817;-91
2023/01/20 13:05:41;;;;;;;;;;;;;;;5.71;59.28;98233.66;4468278;32;34329;-91
2023/01/20 13:08:22;;;;;;;;;;;;;;;5.43;59.85;98237.47;4454586;32;34445;-90
2023/01/20 13:10:55;;;;;;;;;;;;;;;5.58;59.78;98227.47;4455069;32;34050;-89
2023/01/20 13:13:22;;;;;;;;;;;;;;;5.03;60.95;98244.41;4455217;32;33264;-93
2023/01/20 13:15:50;;;;;;;;;;;;;;;5.77;59.12;98240.63;4468945;32;34767;-89
2023/01/20 13:18:17;;;;;;;;;;;;;;;5.86;59.14;98243.34;4468827;32;35300;-93
2023/01/20 13:20:44;;;;;;;;;;;;;;;6.61;56.26;98230.78;4469151;32;33715;-87
2023/01/20 13:23:13;;;;;;;;;;;;;;;6.12;58.40;98235.22;4469446;32;34028;-90
2023/01/20 13:25:40;;;;;;;;;;;;;;;6.32;57.58;98229.50;4455543;32;34170;-90
2023/01/20 13:28:17;;;;;;;;;;;;;;;6.38;57.15;98240.75;4455768;32;34252;-91